NCAR-RAP Real-Time Weather Data

Output produced by METARs form (06 May 2021  16:17 UTC)
found at http://weather.rap.ucar.edu/surface/
 
KLAN 061553Z 26004KT 10SM OVC065 09/M01 A3012 RMK AO2 SLP206 T00941006
KLAN 061453Z 08003KT 10SM OVC065 09/M01 A3012 RMK AO2 SLP204 T00941006 58001
KLAN 061353Z 00000KT 10SM OVC065 08/00 A3014 RMK AO2 SLP210 T00830000
KLAN 061253Z 08003KT 10SM OVC075 08/00 A3014 RMK AO2 SLP210 T00830000
KLAN 061153Z 13004KT 10SM SCT080 BKN090 07/M01 A3013 RMK AO2 SLP204 T00721006 10072 20039 57003
KLAN 061053Z 00000KT 10SM FEW060 OVC085 05/02 A3013 RMK AO2 SLP205 T00500022
KLAN 060953Z 00000KT 10SM OVC090 04/01 A3013 RMK AO2 SLP207 T00440011
KLAN 060853Z 00000KT 10SM BKN095 04/01 A3013 RMK AO2 SLP208 T00390011 55004
KLAN 060753Z 00000KT 10SM SCT100 OVC120 04/01 A3013 RMK AO2 SLP207 T00390011
KLAN 060653Z 00000KT 10SM BKN110 04/02 A3014 RMK AO2 SLP209 T00390017
KLAN 060553Z 00000KT 10SM OVC120 04/02 A3014 RMK AO2 SLP213 T00390022 10128 20033 50000
KLAN 060453Z 00000KT 10SM CLR 04/01 A3015 RMK AO2 SLP214 T00390006 401500039
KLAN 060353Z 00000KT 10SM CLR 06/M01 A3015 RMK AO2 SLP215 T00611006
KLAN 060253Z 00000KT 10SM CLR 08/M01 A3014 RMK AO2 SLP212 T00831011 53023
KLAN 060153Z 35003KT 10SM CLR 09/M01 A3012 RMK AO2 SLP203 T00941011
KLAN 060053Z 33004KT 10SM CLR 11/M01 A3010 RMK AO2 SLP196 T01061011